sensor_id;sensor_type;location;lat;lon;timestamp;pressure;altitude;pressure_sealevel;temperature;humidity
71956;BME280;59829;50.562;6.258;2023-08-06T00:06:39;94615.38;;;15.35;100.00
71956;BME280;59829;50.562;6.258;2023-08-06T00:16:39;94620.28;;;15.30;100.00
71956;BME280;59829;50.562;6.258;2023-08-06T00:26:40;94606.84;;;15.20;100.00
71956;BME280;59829;50.562;6.258;2023-08-06T00:36:40;94607.94;;;15.11;100.00
71956;BME280;59829;50.562;6.258;2023-08-06T00:46:40;94601.19;;;15.10;100.00
71956;BME280;59829;50.562;6.258;2023-08-06T00:56:41;94598.31;;;15.05;100.00
71956;BME280;59829;50.562;6.258;2023-08-06T01:06:55;94603.09;;;15.08;100.00
71956;BME280;59829;50.562;6.258;2023-08-06T01:16:58;94603.09;;;15.08;100.00
71956;BME280;59829;50.562;6.258;2023-08-06T01:27:04;94587.31;;;15.11;100.00
71956;BME280;59829;50.562;6.258;2023-08-06T01:37:06;94587.44;;;15.09;100.00
71956;BME280;59829;50.562;6.258;2023-08-06T01:47:07;94577.78;;;15.12;100.00
71956;BME280;59829;50.562;6.258;2023-08-06T01:57:07;94576.97;;;15.11;100.00
71956;BME280;59829;50.562;6.258;2023-08-06T02:07:08;94576.81;;;15.13;100.00
71956;BME280;59829;50.562;6.258;2023-08-06T02:17:08;94559.53;;;15.13;100.00
71956;BME280;59829;50.562;6.258;2023-08-06T02:27:08;94554.38;;;15.13;100.00
71956;BME280;59829;50.562;6.258;2023-08-06T02:37:09;94543.09;;;15.14;100.00
71956;BME280;59829;50.562;6.258;2023-08-06T02:47:09;94530.63;;;15.18;100.00
71956;BME280;59829;50.562;6.258;2023-08-06T02:57:09;94530.25;;;15.21;100.00
71956;BME280;59829;50.562;6.258;2023-08-06T10:17:44;94945.28;;;13.98;100.00
71956;BME280;59829;50.562;6.258;2023-08-06T10:37:48;94936.53;;;14.15;100.00
71956;BME280;59829;50.562;6.258;2023-08-06T10:47:49;94975.31;;;14.30;100.00
71956;BME280;59829;50.562;6.258;2023-08-06T10:57:49;94949.38;;;14.32;100.00
71956;BME280;59829;50.562;6.258;2023-08-06T11:07:50;94968.03;;;14.34;100.00
71956;BME280;59829;50.562;6.258;2023-08-06T11:17:51;94975.78;;;14.34;100.00
71956;BME280;59829;50.562;6.258;2023-08-06T11:27:51;95003.47;;;14.32;100.00
71956;BME280;59829;50.562;6.258;2023-08-06T11:37:52;94983.84;;;14.31;100.00
71956;BME280;59829;50.562;6.258;2023-08-06T11:47:52;94984.59;;;14.39;100.00
71956;BME280;59829;50.562;6.258;2023-08-06T11:57:56;95007.34;;;14.44;100.00
71956;BME280;59829;50.562;6.258;2023-08-06T12:07:58;94985.41;;;14.40;100.00
71956;BME280;59829;50.562;6.258;2023-08-06T12:17:58;95007.03;;;14.31;100.00
71956;BME280;59829;50.562;6.258;2023-08-06T12:27:58;95019.09;;;14.22;100.00
71956;BME280;59829;50.562;6.258;2023-08-06T12:37:59;95075.28;;;14.02;100.00
71956;BME280;59829;50.562;6.258;2023-08-06T12:47:59;95066.78;;;13.94;100.00
71956;BME280;59829;50.562;6.258;2023-08-06T12:58:00;95059.88;;;13.94;100.00
71956;BME280;59829;50.562;6.258;2023-08-06T13:08:00;95083.38;;;14.07;100.00
71956;BME280;59829;50.562;6.258;2023-08-06T13:18:00;95092.34;;;14.03;100.00
71956;BME280;59829;50.562;6.258;2023-08-06T13:28:00;95098.31;;;14.04;100.00
71956;BME280;59829;50.562;6.258;2023-08-06T13:38:01;95088.34;;;14.01;100.00
71956;BME280;59829;50.562;6.258;2023-08-06T13:48:04;95105.56;;;14.08;100.00
71956;BME280;59829;50.562;6.258;2023-08-06T13:58:04;95124.22;;;13.94;100.00
71956;BME280;59829;50.562;6.258;2023-08-06T14:08:05;95123.25;;;13.87;100.00
71956;BME280;59829;50.562;6.258;2023-08-06T14:18:06;95137.59;;;13.90;100.00
71956;BME280;59829;50.562;6.258;2023-08-06T14:28:08;95121.00;;;13.92;100.00
71956;BME280;59829;50.562;6.258;2023-08-06T14:38:08;95143.53;;;13.90;100.00
71956;BME280;59829;50.562;6.258;2023-08-06T14:48:08;95153.84;;;13.90;100.00
71956;BME280;59829;50.562;6.258;2023-08-06T14:58:09;95165.41;;;13.86;100.00
71956;BME280;59829;50.562;6.258;2023-08-06T15:08:09;95164.91;;;13.74;100.00
71956;BME280;59829;50.562;6.258;2023-08-06T15:18:09;95195.97;;;13.81;100.00
71956;BME280;59829;50.562;6.258;2023-08-06T15:28:11;95216.41;;;13.82;100.00
71956;BME280;59829;50.562;6.258;2023-08-06T15:38:11;95225.72;;;13.75;100.00
71956;BME280;59829;50.562;6.258;2023-08-06T15:48:12;95240.13;;;13.60;100.00
71956;BME280;59829;50.562;6.258;2023-08-06T15:58:12;95229.28;;;13.48;100.00
71956;BME280;59829;50.562;6.258;2023-08-06T16:08:12;95256.28;;;13.44;100.00
71956;BME280;59829;50.562;6.258;2023-08-06T16:18:12;95276.56;;;13.47;100.00
71956;BME280;59829;50.562;6.258;2023-08-06T16:28:13;95284.28;;;13.47;100.00
71956;BME280;59829;50.562;6.258;2023-08-06T16:38:13;95295.66;;;13.37;100.00
71956;BME280;59829;50.562;6.258;2023-08-06T16:48:15;95286.19;;;13.37;100.00
71956;BME280;59829;50.562;6.258;2023-08-06T16:58:16;95323.81;;;13.38;100.00
71956;BME280;59829;50.562;6.258;2023-08-06T17:08:16;95331.97;;;13.34;100.00
71956;BME280;59829;50.562;6.258;2023-08-06T17:18:17;95329.22;;;13.35;100.00
71956;BME280;59829;50.562;6.258;2023-08-06T17:28:17;95340.47;;;13.34;100.00
71956;BME280;59829;50.562;6.258;2023-08-06T17:38:17;95351.38;;;13.28;100.00
71956;BME280;59829;50.562;6.258;2023-08-06T17:48:18;95379.31;;;13.23;100.00
71956;BME280;59829;50.562;6.258;2023-08-06T17:58:18;95381.59;;;13.26;100.00
71956;BME280;59829;50.562;6.258;2023-08-06T18:08:18;95402.47;;;13.23;100.00
71956;BME280;59829;50.562;6.258;2023-08-06T18:18:19;95411.94;;;13.22;100.00
71956;BME280;59829;50.562;6.258;2023-08-06T18:28:19;95423.06;;;13.13;100.00
71956;BME280;59829;50.562;6.258;2023-08-06T18:38:19;95424.47;;;13.08;100.00
71956;BME280;59829;50.562;6.258;2023-08-06T18:48:20;95464.00;;;13.07;100.00
71956;BME280;59829;50.562;6.258;2023-08-06T18:58:20;95469.72;;;13.01;100.00
71956;BME280;59829;50.562;6.258;2023-08-06T19:08:20;95480.59;;;12.94;100.00
71956;BME280;59829;50.562;6.258;2023-08-06T19:18:21;95462.44;;;12.96;100.00
71956;BME280;59829;50.562;6.258;2023-08-06T19:28:21;95490.34;;;12.91;100.00
71956;BME280;59829;50.562;6.258;2023-08-06T19:38:24;95516.34;;;12.88;100.00
71956;BME280;59829;50.562;6.258;2023-08-06T19:48:24;95505.81;;;12.81;100.00
71956;BME280;59829;50.562;6.258;2023-08-06T19:58:26;95522.03;;;12.82;100.00
71956;BME280;59829;50.562;6.258;2023-08-06T20:08:27;95535.91;;;12.71;100.00
71956;BME280;59829;50.562;6.258;2023-08-06T20:18:27;95499.13;;;12.71;100.00
71956;BME280;59829;50.562;6.258;2023-08-06T20:28:28;95511.44;;;12.67;100.00
71956;BME280;59829;50.562;6.258;2023-08-06T20:38:28;95516.72;;;12.65;100.00
71956;BME280;59829;50.562;6.258;2023-08-06T20:48:29;95530.25;;;12.67;100.00
71956;BME280;59829;50.562;6.258;2023-08-06T20:58:30;95534.28;;;12.70;100.00
71956;BME280;59829;50.562;6.258;2023-08-06T21:08:32;95537.81;;;12.69;100.00
71956;BME280;59829;50.562;6.258;2023-08-06T21:18:33;95546.72;;;12.65;100.00
71956;BME280;59829;50.562;6.258;2023-08-06T21:28:35;95559.59;;;12.65;100.00
71956;BME280;59829;50.562;6.258;2023-08-06T21:38:37;95551.06;;;12.64;100.00
71956;BME280;59829;50.562;6.258;2023-08-06T21:48:39;95553.78;;;12.63;100.00
71956;BME280;59829;50.562;6.258;2023-08-06T21:58:47;95578.00;;;12.60;100.00
71956;BME280;59829;50.562;6.258;2023-08-06T22:08:47;95550.84;;;12.58;100.00
71956;BME280;59829;50.562;6.258;2023-08-06T22:18:48;95544.06;;;12.57;100.00
71956;BME280;59829;50.562;6.258;2023-08-06T22:28:48;95537.31;;;12.56;100.00
71956;BME280;59829;50.562;6.258;2023-08-06T22:38:48;95551.41;;;12.52;100.00
71956;BME280;59829;50.562;6.258;2023-08-06T22:48:49;95561.94;;;12.49;100.00
71956;BME280;59829;50.562;6.258;2023-08-06T22:58:49;95551.00;;;12.47;100.00
71956;BME280;59829;50.562;6.258;2023-08-06T23:08:50;95541.94;;;12.43;100.00
71956;BME280;59829;50.562;6.258;2023-08-06T23:18:50;95548.72;;;12.44;100.00
71956;BME280;59829;50.562;6.258;2023-08-06T23:28:50;95561.97;;;12.39;100.00
71956;BME280;59829;50.562;6.258;2023-08-06T23:38:52;95581.44;;;12.42;100.00
71956;BME280;59829;50.562;6.258;2023-08-06T23:48:54;95580.09;;;12.37;100.00
71956;BME280;59829;50.562;6.258;2023-08-06T23:58:55;95566.59;;;12.35;100.00
